Time;durP1;ratioP1;P1;durP2;ratioP2;P2;SDS_P1;SDS_P2;PMS_P1;PMS_P2;Temp;Humidity;BMP_temperature;BMP_pressure;BME280_temperature;BME280_humidity;BME280_pressure;Samples;Min_cycle;Max_cycle;Signal;HPM_P1;HPM_P2
2022/06/24 04:15:32;;;;;;;34.85;13.32;;;20.40;98.30;;;;;;6233881;22;20077;-75
2022/06/24 04:17:58;;;;;;;36.10;11.20;;;20.40;98.40;;;;;;6200224;22;20515;-75
2022/06/24 04:20:24;;;;;;;31.33;9.82;;;20.30;98.20;;;;;;6226060;22;20008;-74
2022/06/24 04:22:49;;;;;;;35.25;8.35;;;20.30;98.30;;;;;;6251230;22;20434;-74
2022/06/24 04:25:16;;;;;;;36.42;8.45;;;20.20;98.30;;;;;;6225873;22;20014;-76
2022/06/24 04:27:41;;;;;;;35.60;6.82;;;20.20;98.40;;;;;;6250730;22;20019;-75
2022/06/24 04:30:09;;;;;;;24.17;6.70;;;20.10;99.00;;;;;;6225281;22;20008;-75
2022/06/24 04:32:35;;;;;;;19.60;5.80;;;20.10;99.00;;;;;;6251102;22;20388;-74
2022/06/24 07:59:18;;;;;;;14.13;8.50;;;19.60;99.90;;;;;;6251005;22;20457;-77
2022/06/24 08:01:44;;;;;;;12.70;6.88;;;19.60;99.90;;;;;;6251384;22;20011;-76
2022/06/24 08:04:13;;;;;;;12.25;8.55;;;19.70;99.90;;;;;;6251400;22;20016;-77
2022/06/24 08:07:04;;;;;;;11.50;7.47;;;19.60;99.90;;;;;;6201206;22;20480;-77
2022/06/24 08:09:32;;;;;;;12.50;7.18;;;19.70;99.90;;;;;;6225510;22;20018;-75
2022/06/24 08:12:16;;;;;;;13.07;6.97;;;19.70;99.90;;;;;;6251080;22;20004;-76
2022/06/24 08:22:07;;;;;;;15.00;7.55;;;19.70;99.90;;;;;;6277887;22;20083;-70
2022/06/24 08:24:57;;;;;;;13.20;7.80;;;19.70;99.90;;;;;;6226009;22;20376;-80
2022/06/24 08:31:41;;;;;;;10.45;7.13;;;19.70;99.90;;;;;;6183844;23;20016;-82
2022/06/24 10:34:56;;;;;;;20.35;9.30;;;19.30;99.90;;;;;;6075578;23;20186;-75
2022/06/24 11:19:41;;;;;;;21.88;13.00;;;20.40;99.90;;;;;;6274670;22;20015;-72
2022/06/24 11:49:19;;;;;;;20.20;11.93;;;20.90;99.90;;;;;;6183881;22;20082;-70
2022/06/24 12:07:12;;;;;;;23.40;14.43;;;21.20;99.90;;;;;;6122088;23;20009;-71
2022/06/24 12:39:47;;;;;;;;;;;21.70;98.00;;;;;;6276917;22;20017;-73
2022/06/24 12:42:17;;;;;;;22.65;15.57;;;21.80;98.30;;;;;;6223660;22;20292;-71
2022/06/24 13:06:42;;;;;;;26.25;15.43;;;22.80;97.60;;;;;;6276065;22;20022;-74
2022/06/24 13:10:04;;;;;;;23.05;15.07;;;22.90;96.10;;;;;;6182540;22;20019;-74
2022/06/24 13:14:07;;;;;;;19.30;14.73;;;23.00;96.10;;;;;;6218145;22;20008;-76
2022/06/24 13:16:57;;;;;;;22.17;14.52;;;23.00;95.40;;;;;;6122851;23;20017;-73
2022/06/24 13:23:41;;;;;;;18.33;13.10;;;23.60;97.60;;;;;;6039811;23;20070;-74
2022/06/24 13:26:35;;;;;;;18.25;12.43;;;23.80;93.70;;;;;;6077755;23;20024;-73
2022/06/24 13:29:06;;;;;;;20.30;13.00;;;24.10;95.70;;;;;;6127921;23;20092;-71
2022/06/24 13:35:38;;;;;;;15.00;11.90;;;24.30;92.50;;;;;;6244751;22;19910;-73
2022/06/24 13:38:04;;;;;;;13.88;10.50;;;24.70;92.40;;;;;;6218365;23;20012;-72
2022/06/24 13:40:36;;;;;;;14.18;9.88;;;25.00;96.60;;;;;;6218316;23;20019;-72
2022/06/24 13:51:53;;;;;;;15.73;10.90;;;25.40;90.40;;;;;;6122506;23;20020;-75
2022/06/24 14:09:34;;;;;;;14.05;11.18;;;25.80;89.10;;;;;;6023649;23;20018;-76
2022/06/24 14:12:54;;;;;;;13.10;9.88;;;25.90;88.40;;;;;;6036212;23;20074;-74
2022/06/24 14:19:15;;;;;;;18.17;10.38;;;25.90;88.10;;;;;;6024972;23;20079;-70
2022/06/24 14:35:56;;;;;;;14.77;10.85;;;25.90;90.20;;;;;;6199187;22;20053;-69
2022/06/24 14:41:29;;;;;;;15.60;10.80;;;26.00;85.30;;;;;;6184470;23;20052;-71
2022/06/24 14:43:55;;;;;;;16.55;11.20;;;25.90;86.70;;;;;;6130012;23;20096;-67
2022/06/24 14:46:53;;;;;;;20.55;12.15;;;25.80;90.50;;;;;;6157797;23;20051;-73
2022/06/24 14:50:02;;;;;;;;;;;;;;;;;;;;;
2022/06/24 14:52:39;;;;;;;12.82;8.25;;;26.00;84.10;;;;;;6140554;23;20092;-70
2022/06/24 14:55:08;;;;;;;14.15;7.30;;;26.30;90.20;;;;;;6132753;23;20040;-70
2022/06/24 15:12:41;;;;;;;5.57;2.17;;;27.40;72.70;;;;;;6006887;23;20033;-73
2022/06/24 15:15:08;;;;;;;5.75;3.00;;;27.70;70.20;;;;;;5985316;23;20455;-70
2022/06/24 15:32:55;;;;;;;9.23;5.70;;;27.70;75.00;;;;;;5897714;24;20069;-70
2022/06/24 15:35:26;;;;;;;12.52;6.40;;;27.40;73.00;;;;;;5934097;23;20096;-70
2022/06/24 15:37:53;;;;;;;15.23;6.78;;;26.90;76.90;;;;;;6121403;23;20076;-69
2022/06/24 15:40:20;;;;;;;10.93;7.38;;;26.30;79.70;;;;;;6126972;23;20052;-69
2022/06/24 15:42:45;;;;;;;14.05;8.25;;;26.00;83.60;;;;;;6102704;23;20010;-69
2022/06/24 15:45:11;;;;;;;13.70;7.70;;;25.70;84.00;;;;;;6126717;23;20313;-71
2022/06/24 15:47:41;;;;;;;12.68;7.90;;;25.50;83.80;;;;;;6127282;23;20120;-69
2022/06/24 15:50:07;;;;;;;16.25;9.25;;;25.40;83.90;;;;;;6104334;23;20475;-70
2022/06/24 15:52:33;;;;;;;14.65;10.70;;;25.40;85.10;;;;;;6128986;23;20013;-68
2022/06/24 15:54:59;;;;;;;16.40;10.38;;;25.60;86.00;;;;;;6128619;23;20021;-69
2022/06/24 15:57:28;;;;;;;16.60;11.48;;;25.80;83.70;;;;;;6128376;23;20325;-70
2022/06/24 16:00:22;;;;;;;18.45;11.27;;;25.90;83.30;;;;;;6136979;23;20406;-74
2022/06/24 16:06:21;;;;;;;15.18;9.02;;;26.30;81.60;;;;;;6188421;23;20099;-73
2022/06/24 16:09:09;;;;;;;16.20;9.13;;;26.10;81.20;;;;;;6189177;23;20102;-71
2022/06/24 16:12:27;;;;;;;12.18;8.15;;;26.20;81.70;;;;;;6165979;23;20060;-75
2022/06/24 16:14:50;;;;;;;13.73;7.85;;;26.40;79.50;;;;;;6187918;23;20063;-73
2022/06/24 16:17:16;;;;;;;11.82;6.15;;;26.30;78.80;;;;;;6163591;23;20040;-75
2022/06/24 16:20:08;;;;;;;10.43;5.72;;;26.10;79.40;;;;;;6127852;23;20063;-76
2022/06/24 16:22:43;;;;;;;10.82;4.93;;;25.90;77.90;;;;;;6103866;23;20102;-74
2022/06/24 16:42:26;;;;;;;5.38;2.50;;;24.50;77.10;;;;;;6062424;23;20395;-75
2022/06/24 16:45:54;;;;;;;6.60;2.45;;;24.50;79.10;;;;;;6042625;23;20444;-76
2022/06/24 16:48:50;;;;;;;5.55;1.70;;;24.70;76.80;;;;;;5925240;24;20055;-75
2022/06/24 16:55:16;;;;;;;4.78;1.80;;;25.20;72.50;;;;;;5953873;24;20049;-80
2022/06/24 17:05:24;;;;;;;4.97;2.03;;;24.30;75.10;;;;;;6025306;23;20464;-74
2022/06/24 17:57:52;;;;;;;;;;;;;;;;;;;;;
2022/06/24 18:01:11;;;;;;;;;;;22.80;84.50;;;;;;6181126;23;20017;-77
2022/06/24 18:06:42;;;;;;;6.68;2.72;;;22.60;84.20;;;;;;6232623;22;20015;-80
2022/06/24 18:32:00;;;;;;;9.93;3.85;;;21.70;86.80;;;;;;6096157;22;2871616;-71
2022/06/24 18:34:27;;;;;;;7.50;4.57;;;21.70;89.70;;;;;;6222427;22;20019;-66
2022/06/24 18:36:53;;;;;;;6.28;4.03;;;21.50;89.00;;;;;;6223526;22;20011;-68
2022/06/24 18:39:18;;;;;;;;;;;21.40;89.70;;;;;;6224197;22;20452;-69
2022/06/24 18:41:44;;;;;;;8.55;4.82;;;21.40;91.60;;;;;;6224575;22;19914;-66
2022/06/24 18:44:10;;;;;;;;;;;21.40;90.30;;;;;;6224392;22;20299;-67
2022/06/24 18:46:36;;;;;;;7.53;5.00;;;21.30;91.50;;;;;;6248928;22;19915;-67
2022/06/24 18:49:03;;;;;;;;;;;21.30;90.80;;;;;;6249115;22;20008;-67
2022/06/24 18:51:29;;;;;;;11.18;5.32;;;21.20;91.70;;;;;;6223562;22;19914;-68
2022/06/24 18:53:55;;;;;;;12.45;5.65;;;21.30;91.00;;;;;;6249063;22;20058;-68
2022/06/24 20:46:58;;;;;;;18.83;10.32;;;18.90;96.70;;;;;;6250549;22;20027;-71
2022/06/24 20:49:24;;;;;;;16.85;10.27;;;18.80;97.10;;;;;;6249534;22;20023;-68
2022/06/24 20:51:50;;;;;;;13.73;10.32;;;18.70;97.00;;;;;;6199990;22;20446;-70
2022/06/24 20:54:15;;;;;;;16.33;10.45;;;18.70;97.10;;;;;;6200070;22;20020;-69
2022/06/24 20:56:42;;;;;;;18.92;11.10;;;18.60;97.20;;;;;;6225021;22;20073;-68
2022/06/24 20:59:08;;;;;;;14.68;8.20;;;18.60;97.40;;;;;;6250383;22;20031;-69
2022/06/24 21:01:34;;;;;;;17.58;10.95;;;18.50;97.20;;;;;;6225577;22;20382;-67
2022/06/24 21:04:00;;;;;;;16.98;10.90;;;18.50;97.30;;;;;;6224924;22;20050;-69
2022/06/24 21:06:26;;;;;;;16.95;10.48;;;18.40;97.50;;;;;;6224950;22;20015;-69
2022/06/24 21:08:52;;;;;;;17.30;10.32;;;18.40;97.60;;;;;;6277203;22;20010;-69
2022/06/24 21:11:20;;;;;;;19.80;11.10;;;18.30;97.80;;;;;;6250581;22;20445;-71
2022/06/24 21:13:46;;;;;;;13.60;9.95;;;18.30;97.80;;;;;;6249808;22;20013;-70
2022/06/24 21:16:11;;;;;;;17.20;10.93;;;18.30;98.00;;;;;;6250297;22;20023;-70
2022/06/24 21:18:37;;;;;;;17.55;11.25;;;18.20;97.90;;;;;;6249709;22;20016;-70
2022/06/24 21:21:02;;;;;;;16.95;11.88;;;18.10;98.10;;;;;;6199806;22;20065;-69
2022/06/24 21:23:29;;;;;;;22.60;11.73;;;18.10;98.30;;;;;;6250467;22;20012;-70
2022/06/24 21:25:54;;;;;;;22.88;11.23;;;18.10;98.60;;;;;;6277471;22;20012;-70
2022/06/24 21:28:20;;;;;;;19.45;12.48;;;18.10;98.60;;;;;;6249152;22;20018;-69
2022/06/24 21:30:46;;;;;;;18.25;11.90;;;18.00;98.50;;;;;;6277411;22;20019;-69
2022/06/24 21:33:12;;;;;;;18.83;13.00;;;18.00;98.60;;;;;;6224962;22;20434;-68
2022/06/24 21:35:37;;;;;;;20.58;11.68;;;17.90;99.10;;;;;;6249906;22;20007;-70
2022/06/24 21:38:05;;;;;;;18.60;12.75;;;17.80;99.20;;;;;;6276376;22;20420;-71
2022/06/24 21:40:32;;;;;;;17.13;11.63;;;17.90;98.90;;;;;;6250053;22;20020;-72
2022/06/24 21:42:58;;;;;;;14.02;10.65;;;17.80;98.90;;;;;;6224904;22;20031;-69
2022/06/24 21:45:25;;;;;;;19.25;12.65;;;17.80;98.90;;;;;;6249995;22;20012;-70
2022/06/24 21:47:51;;;;;;;16.85;12.38;;;17.80;99.10;;;;;;6224084;22;20018;-71
2022/06/24 21:50:17;;;;;;;19.98;12.30;;;17.80;99.20;;;;;;6277372;22;20087;-71
2022/06/24 21:52:43;;;;;;;17.50;13.25;;;17.80;99.30;;;;;;6224808;22;20008;-71
2022/06/24 21:55:08;;;;;;;19.98;13.10;;;17.80;99.40;;;;;;6224744;22;20022;-68
2022/06/24 21:57:34;;;;;;;18.70;13.77;;;17.70;99.50;;;;;;6249577;22;20118;-69
2022/06/24 22:00:00;;;;;;;18.08;12.55;;;17.60;99.90;;;;;;6276804;22;20022;-68
2022/06/24 22:02:27;;;;;;;22.20;13.45;;;17.60;99.40;;;;;;6250018;22;20050;-68
2022/06/24 22:04:53;;;;;;;17.85;13.40;;;17.50;99.70;;;;;;6277040;22;20008;-68
2022/06/24 22:07:19;;;;;;;17.48;13.85;;;17.50;99.90;;;;;;6249200;22;20098;-71
2022/06/24 22:09:45;;;;;;;21.50;15.18;;;17.50;99.90;;;;;;6224515;22;20019;-70
2022/06/24 22:12:11;;;;;;;19.35;15.05;;;17.50;99.80;;;;;;6249313;22;20012;-69
2022/06/24 22:14:36;;;;;;;25.10;16.63;;;17.40;99.90;;;;;;6224377;22;20026;-69
2022/06/24 22:17:02;;;;;;;23.38;15.52;;;17.40;99.90;;;;;;6276763;22;20007;-70
2022/06/24 22:19:28;;;;;;;20.42;15.00;;;17.30;99.90;;;;;;6249512;22;20007;-70
2022/06/24 22:21:56;;;;;;;20.00;14.45;;;17.30;99.90;;;;;;6276734;22;20014;-70
2022/06/24 22:24:22;;;;;;;20.92;14.60;;;17.30;99.90;;;;;;6224119;22;20106;-72
2022/06/24 22:26:47;;;;;;;25.05;16.10;;;17.20;99.90;;;;;;6249030;22;20012;-70
2022/06/24 22:29:13;;;;;;;24.50;16.10;;;17.20;99.90;;;;;;6249657;22;20008;-69
2022/06/24 22:31:39;;;;;;;23.45;15.68;;;17.20;99.90;;;;;;6224288;22;20016;-70
2022/06/24 22:34:05;;;;;;;22.25;15.75;;;17.10;99.90;;;;;;6277175;22;20016;-70
2022/06/24 22:36:30;;;;;;;20.92;15.18;;;17.10;99.90;;;;;;6249100;22;20424;-71
2022/06/24 22:38:56;;;;;;;24.52;15.25;;;17.10;99.90;;;;;;6249283;22;20019;-69
2022/06/24 22:41:22;;;;;;;24.60;15.63;;;17.10;99.90;;;;;;6223902;22;20025;-70
2022/06/24 22:43:57;;;;;;;21.27;14.52;;;17.10;99.90;;;;;;6249251;22;20008;-72
2022/06/24 22:46:39;;;;;;;20.75;15.23;;;17.10;99.90;;;;;;6276664;22;20060;-72
2022/06/24 22:49:18;;;;;;;21.92;15.40;;;17.00;99.90;;;;;;6226782;23;20016;-72
2022/06/24 22:52:00;;;;;;;20.50;14.02;;;17.00;99.90;;;;;;6242804;23;20161;-72
2022/06/24 22:54:42;;;;;;;22.75;16.23;;;17.00;99.90;;;;;;6229100;22;20030;-72
2022/06/24 23:00:46;;;;;;;22.27;15.30;;;16.90;99.90;;;;;;6235479;23;20008;-72
2022/06/24 23:03:42;;;;;;;22.05;15.95;;;16.90;99.90;;;;;;6219323;23;20429;-72
2022/06/24 23:06:37;;;;;;;21.00;15.80;;;16.90;99.90;;;;;;6244106;22;20027;-72
2022/06/24 23:09:38;;;;;;;19.15;14.18;;;16.90;99.90;;;;;;6221977;23;20117;-72
2022/06/24 23:12:35;;;;;;;23.08;15.13;;;16.80;99.90;;;;;;6244208;23;20011;-72
2022/06/24 23:15:50;;;;;;;20.60;15.48;;;16.80;99.90;;;;;;6243077;23;20016;-72
2022/06/24 23:19:11;;;;;;;22.52;13.80;;;16.70;99.90;;;;;;6243465;23;20089;-72
2022/06/24 23:21:55;;;;;;;21.63;15.10;;;16.70;99.90;;;;;;6243399;23;20091;-72
2022/06/24 23:24:42;;;;;;;21.17;15.00;;;16.70;99.90;;;;;;6244616;23;20091;-73
2022/06/24 23:27:28;;;;;;;19.33;13.98;;;16.70;99.90;;;;;;6243587;22;20063;-72
2022/06/24 23:29:59;;;;;;;20.67;14.68;;;16.70;99.90;;;;;;6221142;23;20012;-72
2022/06/24 23:35:46;;;;;;;17.02;13.27;;;16.60;99.90;;;;;;6245834;23;20430;-72
2022/06/24 23:38:44;;;;;;;18.83;15.23;;;16.60;99.90;;;;;;6217643;23;20012;-72
2022/06/24 23:41:23;;;;;;;17.13;13.95;;;16.50;99.90;;;;;;6140860;23;20031;-72
2022/06/24 23:44:17;;;;;;;22.85;15.45;;;16.50;99.90;;;;;;6243922;23;20128;-72
2022/06/24 23:47:26;;;;;;;20.98;14.02;;;16.50;99.90;;;;;;6216082;23;20020;-72
2022/06/24 23:52:54;;;;;;;24.88;16.55;;;16.60;99.90;;;;;;6217984;23;20008;-72
2022/06/24 23:55:23;;;;;;;28.67;17.73;;;16.50;99.90;;;;;;6243058;23;20020;-72
2022/06/24 23:57:51;;;;;;;24.23;17.35;;;16.50;99.90;;;;;;6191905;23;20074;-72
